sensor_id;sensor_type;location;lat;lon;timestamp;P1;durP1;ratioP1;P2;durP2;ratioP2
49460;SDS011;35355;49.198;-0.368;2022-09-02T00:02:21;13.82;;;8.48;;
49460;SDS011;35355;49.198;-0.368;2022-09-02T00:04:47;18.85;;;8.43;;
49460;SDS011;35355;49.198;-0.368;2022-09-02T00:07:12;14.85;;;8.55;;
49460;SDS011;35355;49.198;-0.368;2022-09-02T00:09:38;15.05;;;9.88;;
49460;SDS011;35355;49.198;-0.368;2022-09-02T00:12:04;17.13;;;9.25;;
49460;SDS011;35355;49.198;-0.368;2022-09-02T00:14:35;13.57;;;9.20;;
49460;SDS011;35355;49.198;-0.368;2022-09-02T00:17:03;14.35;;;9.48;;
49460;SDS011;35355;49.198;-0.368;2022-09-02T00:19:29;16.63;;;10.20;;
49460;SDS011;35355;49.198;-0.368;2022-09-02T00:21:56;17.08;;;10.73;;
49460;SDS011;35355;49.198;-0.368;2022-09-02T00:24:23;16.27;;;10.45;;
49460;SDS011;35355;49.198;-0.368;2022-09-02T00:26:49;17.25;;;11.27;;
49460;SDS011;35355;49.198;-0.368;2022-09-02T00:29:15;19.13;;;10.75;;
49460;SDS011;35355;49.198;-0.368;2022-09-02T00:31:41;21.90;;;12.07;;
49460;SDS011;35355;49.198;-0.368;2022-09-02T00:34:08;26.27;;;11.88;;
49460;SDS011;35355;49.198;-0.368;2022-09-02T00:36:34;25.85;;;12.35;;
49460;SDS011;35355;49.198;-0.368;2022-09-02T00:39:00;23.40;;;9.93;;
49460;SDS011;35355;49.198;-0.368;2022-09-02T00:41:26;18.50;;;7.53;;
49460;SDS011;35355;49.198;-0.368;2022-09-02T00:46:27;20.15;;;5.88;;
49460;SDS011;35355;49.198;-0.368;2022-09-02T00:49:00;24.60;;;5.78;;
49460;SDS011;35355;49.198;-0.368;2022-09-02T00:51:33;15.15;;;4.78;;
49460;SDS011;35355;49.198;-0.368;2022-09-02T00:54:03;17.60;;;3.10;;
49460;SDS011;35355;49.198;-0.368;2022-09-02T00:56:30;10.80;;;2.78;;
49460;SDS011;35355;49.198;-0.368;2022-09-02T00:58:56;13.75;;;2.92;;
49460;SDS011;35355;49.198;-0.368;2022-09-02T01:01:24;12.20;;;3.47;;
49460;SDS011;35355;49.198;-0.368;2022-09-02T01:03:51;17.00;;;4.50;;
49460;SDS011;35355;49.198;-0.368;2022-09-02T01:06:19;10.95;;;4.32;;
49460;SDS011;35355;49.198;-0.368;2022-09-02T01:08:50;19.33;;;5.00;;
49460;SDS011;35355;49.198;-0.368;2022-09-02T01:11:21;19.40;;;4.95;;
49460;SDS011;35355;49.198;-0.368;2022-09-02T01:13:47;19.70;;;4.82;;
49460;SDS011;35355;49.198;-0.368;2022-09-02T01:16:30;12.45;;;4.70;;
49460;SDS011;35355;49.198;-0.368;2022-09-02T01:19:02;12.63;;;3.90;;
49460;SDS011;35355;49.198;-0.368;2022-09-02T01:21:31;9.77;;;4.20;;
49460;SDS011;35355;49.198;-0.368;2022-09-02T01:23:56;12.82;;;3.60;;
49460;SDS011;35355;49.198;-0.368;2022-09-02T01:26:22;16.08;;;5.03;;
49460;SDS011;35355;49.198;-0.368;2022-09-02T01:28:47;20.60;;;4.45;;
49460;SDS011;35355;49.198;-0.368;2022-09-02T01:31:12;8.38;;;3.90;;
49460;SDS011;35355;49.198;-0.368;2022-09-02T01:33:38;13.93;;;4.55;;
49460;SDS011;35355;49.198;-0.368;2022-09-02T01:36:03;11.40;;;4.88;;
49460;SDS011;35355;49.198;-0.368;2022-09-02T01:38:30;10.40;;;4.90;;
49460;SDS011;35355;49.198;-0.368;2022-09-02T01:40:55;13.35;;;4.30;;
49460;SDS011;35355;49.198;-0.368;2022-09-02T01:43:23;10.85;;;3.75;;
49460;SDS011;35355;49.198;-0.368;2022-09-02T01:45:50;6.82;;;3.60;;
49460;SDS011;35355;49.198;-0.368;2022-09-02T01:48:17;7.90;;;3.83;;
49460;SDS011;35355;49.198;-0.368;2022-09-02T01:50:45;6.03;;;3.60;;
49460;SDS011;35355;49.198;-0.368;2022-09-02T01:53:15;5.25;;;3.40;;
49460;SDS011;35355;49.198;-0.368;2022-09-02T01:55:41;4.22;;;2.72;;
49460;SDS011;35355;49.198;-0.368;2022-09-02T01:58:07;4.85;;;2.90;;
49460;SDS011;35355;49.198;-0.368;2022-09-02T02:00:32;9.40;;;3.70;;
49460;SDS011;35355;49.198;-0.368;2022-09-02T02:02:58;3.95;;;2.65;;
49460;SDS011;35355;49.198;-0.368;2022-09-02T02:05:24;4.43;;;2.75;;
49460;SDS011;35355;49.198;-0.368;2022-09-02T02:07:49;6.28;;;3.00;;
49460;SDS011;35355;49.198;-0.368;2022-09-02T02:10:16;5.07;;;2.92;;
49460;SDS011;35355;49.198;-0.368;2022-09-02T02:12:42;5.45;;;3.00;;
49460;SDS011;35355;49.198;-0.368;2022-09-02T02:15:10;4.80;;;2.90;;
49460;SDS011;35355;49.198;-0.368;2022-09-02T02:17:38;3.60;;;2.65;;
49460;SDS011;35355;49.198;-0.368;2022-09-02T02:20:04;5.32;;;3.25;;
49460;SDS011;35355;49.198;-0.368;2022-09-02T02:22:30;7.05;;;3.10;;
49460;SDS011;35355;49.198;-0.368;2022-09-02T02:24:56;6.30;;;3.60;;
49460;SDS011;35355;49.198;-0.368;2022-09-02T02:27:21;15.98;;;4.70;;
49460;SDS011;35355;49.198;-0.368;2022-09-02T02:29:47;6.55;;;4.18;;
49460;SDS011;35355;49.198;-0.368;2022-09-02T02:32:12;5.15;;;3.47;;
49460;SDS011;35355;49.198;-0.368;2022-09-02T02:34:38;8.05;;;4.03;;
49460;SDS011;35355;49.198;-0.368;2022-09-02T02:37:04;6.35;;;4.18;;
49460;SDS011;35355;49.198;-0.368;2022-09-02T02:39:30;5.70;;;3.88;;
49460;SDS011;35355;49.198;-0.368;2022-09-02T02:41:56;6.93;;;3.53;;
49460;SDS011;35355;49.198;-0.368;2022-09-02T02:44:21;6.90;;;4.72;;
49460;SDS011;35355;49.198;-0.368;2022-09-02T02:46:47;8.48;;;4.32;;
49460;SDS011;35355;49.198;-0.368;2022-09-02T02:49:13;7.70;;;4.10;;
49460;SDS011;35355;49.198;-0.368;2022-09-02T02:51:38;6.28;;;3.92;;
49460;SDS011;35355;49.198;-0.368;2022-09-02T02:54:04;7.20;;;4.20;;
49460;SDS011;35355;49.198;-0.368;2022-09-02T02:56:30;5.68;;;3.72;;
49460;SDS011;35355;49.198;-0.368;2022-09-02T02:58:56;12.70;;;3.40;;
49460;SDS011;35355;49.198;-0.368;2022-09-02T03:01:23;4.65;;;3.08;;
49460;SDS011;35355;49.198;-0.368;2022-09-02T03:03:49;9.40;;;3.95;;
49460;SDS011;35355;49.198;-0.368;2022-09-02T03:06:16;5.50;;;4.03;;
49460;SDS011;35355;49.198;-0.368;2022-09-02T03:08:41;4.72;;;2.97;;
49460;SDS011;35355;49.198;-0.368;2022-09-02T03:11:06;6.85;;;3.83;;
49460;SDS011;35355;49.198;-0.368;2022-09-02T03:13:32;8.65;;;3.78;;
49460;SDS011;35355;49.198;-0.368;2022-09-02T03:15:58;8.07;;;4.05;;
49460;SDS011;35355;49.198;-0.368;2022-09-02T03:18:23;5.65;;;4.30;;
49460;SDS011;35355;49.198;-0.368;2022-09-02T03:20:49;5.18;;;3.70;;
49460;SDS011;35355;49.198;-0.368;2022-09-02T03:23:14;5.95;;;4.25;;
49460;SDS011;35355;49.198;-0.368;2022-09-02T03:25:42;6.13;;;4.22;;
49460;SDS011;35355;49.198;-0.368;2022-09-02T03:28:08;8.35;;;4.63;;
49460;SDS011;35355;49.198;-0.368;2022-09-02T03:30:34;6.00;;;3.80;;
49460;SDS011;35355;49.198;-0.368;2022-09-02T03:33:00;5.18;;;3.53;;
49460;SDS011;35355;49.198;-0.368;2022-09-02T03:35:27;5.28;;;3.33;;
49460;SDS011;35355;49.198;-0.368;2022-09-02T03:37:53;7.32;;;4.18;;
49460;SDS011;35355;49.198;-0.368;2022-09-02T03:40:23;5.30;;;3.70;;
49460;SDS011;35355;49.198;-0.368;2022-09-02T03:42:50;7.75;;;4.28;;
49460;SDS011;35355;49.198;-0.368;2022-09-02T03:45:16;4.60;;;3.63;;
49460;SDS011;35355;49.198;-0.368;2022-09-02T03:47:42;8.98;;;4.20;;
49460;SDS011;35355;49.198;-0.368;2022-09-02T03:50:17;5.78;;;4.35;;
49460;SDS011;35355;49.198;-0.368;2022-09-02T03:52:44;6.70;;;4.45;;
49460;SDS011;35355;49.198;-0.368;2022-09-02T03:55:10;9.25;;;4.70;;
49460;SDS011;35355;49.198;-0.368;2022-09-02T03:57:36;10.15;;;4.90;;
49460;SDS011;35355;49.198;-0.368;2022-09-02T04:00:03;7.05;;;4.55;;
49460;SDS011;35355;49.198;-0.368;2022-09-02T04:02:32;7.72;;;4.53;;
49460;SDS011;35355;49.198;-0.368;2022-09-02T04:04:57;9.30;;;5.53;;
49460;SDS011;35355;49.198;-0.368;2022-09-02T04:07:22;9.20;;;6.53;;
49460;SDS011;35355;49.198;-0.368;2022-09-02T04:09:48;11.38;;;5.57;;
49460;SDS011;35355;49.198;-0.368;2022-09-02T04:12:14;8.35;;;5.15;;
49460;SDS011;35355;49.198;-0.368;2022-09-02T04:14:39;9.73;;;5.90;;
49460;SDS011;35355;49.198;-0.368;2022-09-02T04:17:06;8.05;;;5.82;;
49460;SDS011;35355;49.198;-0.368;2022-09-02T04:19:31;11.43;;;6.47;;
49460;SDS011;35355;49.198;-0.368;2022-09-02T04:21:56;10.68;;;6.43;;
49460;SDS011;35355;49.198;-0.368;2022-09-02T04:24:22;10.55;;;7.55;;
49460;SDS011;35355;49.198;-0.368;2022-09-02T04:26:48;14.15;;;7.68;;
49460;SDS011;35355;49.198;-0.368;2022-09-02T04:29:13;9.98;;;7.40;;
49460;SDS011;35355;49.198;-0.368;2022-09-02T04:31:39;12.05;;;7.03;;
49460;SDS011;35355;49.198;-0.368;2022-09-02T04:34:04;9.48;;;7.22;;
49460;SDS011;35355;49.198;-0.368;2022-09-02T04:36:30;13.63;;;8.10;;
49460;SDS011;35355;49.198;-0.368;2022-09-02T04:38:56;11.00;;;7.10;;
49460;SDS011;35355;49.198;-0.368;2022-09-02T04:41:24;11.57;;;7.80;;
49460;SDS011;35355;49.198;-0.368;2022-09-02T04:43:51;9.55;;;6.85;;
49460;SDS011;35355;49.198;-0.368;2022-09-02T04:46:18;15.88;;;7.28;;
49460;SDS011;35355;49.198;-0.368;2022-09-02T04:48:44;10.05;;;7.45;;
49460;SDS011;35355;49.198;-0.368;2022-09-02T04:51:13;12.27;;;8.07;;
49460;SDS011;35355;49.198;-0.368;2022-09-02T04:53:41;13.70;;;8.23;;
49460;SDS011;35355;49.198;-0.368;2022-09-02T04:56:08;10.85;;;8.05;;
49460;SDS011;35355;49.198;-0.368;2022-09-02T04:58:36;14.05;;;8.13;;
49460;SDS011;35355;49.198;-0.368;2022-09-02T05:01:06;10.43;;;7.50;;
49460;SDS011;35355;49.198;-0.368;2022-09-02T05:03:32;11.40;;;7.93;;
49460;SDS011;35355;49.198;-0.368;2022-09-02T05:06:02;13.88;;;7.82;;
49460;SDS011;35355;49.198;-0.368;2022-09-02T05:08:32;12.93;;;7.43;;
49460;SDS011;35355;49.198;-0.368;2022-09-02T05:11:03;13.75;;;8.25;;
49460;SDS011;35355;49.198;-0.368;2022-09-02T05:13:30;16.38;;;7.70;;
49460;SDS011;35355;49.198;-0.368;2022-09-02T05:15:55;9.85;;;6.88;;
49460;SDS011;35355;49.198;-0.368;2022-09-02T05:18:20;12.93;;;7.40;;
49460;SDS011;35355;49.198;-0.368;2022-09-02T05:42:13;10.95;;;7.55;;
49460;SDS011;35355;49.198;-0.368;2022-09-02T05:44:40;11.65;;;8.45;;
49460;SDS011;35355;49.198;-0.368;2022-09-02T05:47:08;14.00;;;9.05;;
49460;SDS011;35355;49.198;-0.368;2022-09-02T05:49:34;16.42;;;8.88;;
49460;SDS011;35355;49.198;-0.368;2022-09-02T05:51:59;14.63;;;10.00;;
49460;SDS011;35355;49.198;-0.368;2022-09-02T05:54:26;14.30;;;8.07;;
49460;SDS011;35355;49.198;-0.368;2022-09-02T05:56:54;12.13;;;9.02;;
49460;SDS011;35355;49.198;-0.368;2022-09-02T05:59:25;11.38;;;8.50;;
49460;SDS011;35355;49.198;-0.368;2022-09-02T06:01:52;13.95;;;8.95;;
49460;SDS011;35355;49.198;-0.368;2022-09-02T06:04:18;12.18;;;8.60;;
49460;SDS011;35355;49.198;-0.368;2022-09-02T06:06:44;17.20;;;9.07;;
49460;SDS011;35355;49.198;-0.368;2022-09-02T06:09:11;14.20;;;8.63;;
49460;SDS011;35355;49.198;-0.368;2022-09-02T06:11:39;11.10;;;8.63;;
49460;SDS011;35355;49.198;-0.368;2022-09-02T06:14:08;12.63;;;9.05;;
49460;SDS011;35355;49.198;-0.368;2022-09-02T06:16:35;14.25;;;8.95;;
49460;SDS011;35355;49.198;-0.368;2022-09-02T06:19:01;14.98;;;8.52;;
49460;SDS011;35355;49.198;-0.368;2022-09-02T06:21:28;11.60;;;8.32;;
49460;SDS011;35355;49.198;-0.368;2022-09-02T06:23:54;10.98;;;8.57;;
49460;SDS011;35355;49.198;-0.368;2022-09-02T06:26:20;12.82;;;8.55;;
49460;SDS011;35355;49.198;-0.368;2022-09-02T06:28:46;10.30;;;8.02;;
49460;SDS011;35355;49.198;-0.368;2022-09-02T06:31:13;15.40;;;8.63;;
49460;SDS011;35355;49.198;-0.368;2022-09-02T06:33:41;17.70;;;8.65;;
49460;SDS011;35355;49.198;-0.368;2022-09-02T06:36:09;15.98;;;8.43;;
49460;SDS011;35355;49.198;-0.368;2022-09-02T06:38:40;13.57;;;8.85;;
49460;SDS011;35355;49.198;-0.368;2022-09-02T06:41:09;12.02;;;9.05;;
49460;SDS011;35355;49.198;-0.368;2022-09-02T06:43:36;14.85;;;10.15;;
49460;SDS011;35355;49.198;-0.368;2022-09-02T06:46:01;11.80;;;8.38;;
49460;SDS011;35355;49.198;-0.368;2022-09-02T06:48:27;13.55;;;8.23;;
49460;SDS011;35355;49.198;-0.368;2022-09-02T06:50:52;14.20;;;8.73;;
49460;SDS011;35355;49.198;-0.368;2022-09-02T06:53:19;13.65;;;9.52;;
49460;SDS011;35355;49.198;-0.368;2022-09-02T06:55:45;14.90;;;9.35;;
49460;SDS011;35355;49.198;-0.368;2022-09-02T06:58:11;11.48;;;8.52;;
49460;SDS011;35355;49.198;-0.368;2022-09-02T07:00:38;14.63;;;9.13;;
49460;SDS011;35355;49.198;-0.368;2022-09-02T07:03:05;15.93;;;8.43;;
49460;SDS011;35355;49.198;-0.368;2022-09-02T07:06:06;11.32;;;9.07;;
49460;SDS011;35355;49.198;-0.368;2022-09-02T07:08:35;13.20;;;8.65;;
49460;SDS011;35355;49.198;-0.368;2022-09-02T07:11:02;17.33;;;9.82;;
49460;SDS011;35355;49.198;-0.368;2022-09-02T07:13:29;12.35;;;8.43;;
49460;SDS011;35355;49.198;-0.368;2022-09-02T07:15:54;12.52;;;8.05;;
49460;SDS011;35355;49.198;-0.368;2022-09-02T07:18:19;13.73;;;8.27;;
49460;SDS011;35355;49.198;-0.368;2022-09-02T07:20:46;16.52;;;8.52;;
49460;SDS011;35355;49.198;-0.368;2022-09-02T07:23:12;9.60;;;7.90;;
49460;SDS011;35355;49.198;-0.368;2022-09-02T07:25:39;16.05;;;8.50;;
49460;SDS011;35355;49.198;-0.368;2022-09-02T07:28:05;15.20;;;7.63;;
49460;SDS011;35355;49.198;-0.368;2022-09-02T07:30:31;12.45;;;7.10;;
49460;SDS011;35355;49.198;-0.368;2022-09-02T07:32:57;16.02;;;7.50;;
49460;SDS011;35355;49.198;-0.368;2022-09-02T07:35:22;12.90;;;9.13;;
49460;SDS011;35355;49.198;-0.368;2022-09-02T07:37:48;10.90;;;6.88;;
49460;SDS011;35355;49.198;-0.368;2022-09-02T07:40:14;15.43;;;7.00;;
49460;SDS011;35355;49.198;-0.368;2022-09-02T07:42:40;10.60;;;7.15;;
49460;SDS011;35355;49.198;-0.368;2022-09-02T07:45:06;15.63;;;8.27;;
49460;SDS011;35355;49.198;-0.368;2022-09-02T07:47:33;11.23;;;7.32;;
49460;SDS011;35355;49.198;-0.368;2022-09-02T07:49:58;10.65;;;7.00;;
49460;SDS011;35355;49.198;-0.368;2022-09-02T07:52:23;8.55;;;6.25;;
49460;SDS011;35355;49.198;-0.368;2022-09-02T07:54:49;11.30;;;6.63;;
49460;SDS011;35355;49.198;-0.368;2022-09-02T07:57:14;8.65;;;5.97;;
49460;SDS011;35355;49.198;-0.368;2022-09-02T07:59:40;14.13;;;6.10;;
49460;SDS011;35355;49.198;-0.368;2022-09-02T08:02:07;8.40;;;5.68;;
49460;SDS011;35355;49.198;-0.368;2022-09-02T08:04:33;8.35;;;6.03;;
49460;SDS011;35355;49.198;-0.368;2022-09-02T08:06:59;8.57;;;6.03;;
49460;SDS011;35355;49.198;-0.368;2022-09-02T08:09:25;10.38;;;5.95;;
49460;SDS011;35355;49.198;-0.368;2022-09-02T08:11:51;5.95;;;4.72;;
49460;SDS011;35355;49.198;-0.368;2022-09-02T08:14:21;9.02;;;5.55;;
49460;SDS011;35355;49.198;-0.368;2022-09-02T08:16:50;11.87;;;6.70;;
49460;SDS011;35355;49.198;-0.368;2022-09-02T08:19:16;10.48;;;5.10;;
49460;SDS011;35355;49.198;-0.368;2022-09-02T08:21:42;7.28;;;5.15;;
49460;SDS011;35355;49.198;-0.368;2022-09-02T08:24:08;10.82;;;4.55;;
49460;SDS011;35355;49.198;-0.368;2022-09-02T08:26:34;7.25;;;4.97;;
49460;SDS011;35355;49.198;-0.368;2022-09-02T08:29:01;7.03;;;5.13;;
49460;SDS011;35355;49.198;-0.368;2022-09-02T08:31:27;8.90;;;5.07;;
49460;SDS011;35355;49.198;-0.368;2022-09-02T08:33:53;9.48;;;5.55;;
49460;SDS011;35355;49.198;-0.368;2022-09-02T08:36:18;9.82;;;5.75;;
49460;SDS011;35355;49.198;-0.368;2022-09-02T08:38:45;10.50;;;5.85;;
49460;SDS011;35355;49.198;-0.368;2022-09-02T08:41:24;8.35;;;4.40;;
49460;SDS011;35355;49.198;-0.368;2022-09-02T08:43:54;7.78;;;4.30;;
49460;SDS011;35355;49.198;-0.368;2022-09-02T08:46:23;11.23;;;5.28;;
49460;SDS011;35355;49.198;-0.368;2022-09-02T08:48:55;8.73;;;4.22;;
49460;SDS011;35355;49.198;-0.368;2022-09-02T08:51:54;4.93;;;4.07;;
49460;SDS011;35355;49.198;-0.368;2022-09-02T08:54:29;6.68;;;4.47;;
49460;SDS011;35355;49.198;-0.368;2022-09-02T08:57:00;5.18;;;4.00;;
49460;SDS011;35355;49.198;-0.368;2022-09-02T08:59:26;6.45;;;4.20;;
49460;SDS011;35355;49.198;-0.368;2022-09-02T09:07:11;8.75;;;5.78;;
49460;SDS011;35355;49.198;-0.368;2022-09-02T09:17:56;8.40;;;4.25;;
49460;SDS011;35355;49.198;-0.368;2022-09-02T09:20:25;6.85;;;4.43;;
49460;SDS011;35355;49.198;-0.368;2022-09-02T09:22:56;5.90;;;4.13;;
49460;SDS011;35355;49.198;-0.368;2022-09-02T09:25:24;5.68;;;4.00;;
49460;SDS011;35355;49.198;-0.368;2022-09-02T09:27:59;7.55;;;3.20;;
49460;SDS011;35355;49.198;-0.368;2022-09-02T09:30:26;5.28;;;3.22;;
49460;SDS011;35355;49.198;-0.368;2022-09-02T09:32:53;7.28;;;4.00;;
49460;SDS011;35355;49.198;-0.368;2022-09-02T09:35:24;5.22;;;3.50;;
49460;SDS011;35355;49.198;-0.368;2022-09-02T09:37:54;7.15;;;3.63;;
49460;SDS011;35355;49.198;-0.368;2022-09-02T09:42:51;8.13;;;3.92;;
49460;SDS011;35355;49.198;-0.368;2022-09-02T09:50:33;5.75;;;4.03;;
49460;SDS011;35355;49.198;-0.368;2022-09-02T09:58:26;4.90;;;3.20;;
49460;SDS011;35355;49.198;-0.368;2022-09-02T10:00:56;6.47;;;3.60;;
49460;SDS011;35355;49.198;-0.368;2022-09-02T10:03:25;6.68;;;3.80;;
49460;SDS011;35355;49.198;-0.368;2022-09-02T10:05:58;5.38;;;3.63;;
49460;SDS011;35355;49.198;-0.368;2022-09-02T10:08:55;4.10;;;3.00;;
49460;SDS011;35355;49.198;-0.368;2022-09-02T10:11:25;4.05;;;3.42;;
49460;SDS011;35355;49.198;-0.368;2022-09-02T10:13:59;4.72;;;2.65;;
49460;SDS011;35355;49.198;-0.368;2022-09-02T10:16:48;4.90;;;3.03;;
49460;SDS011;35355;49.198;-0.368;2022-09-02T10:30:20;3.35;;;2.90;;
49460;SDS011;35355;49.198;-0.368;2022-09-02T10:32:55;4.35;;;2.67;;
49460;SDS011;35355;49.198;-0.368;2022-09-02T10:35:41;4.13;;;3.08;;
49460;SDS011;35355;49.198;-0.368;2022-09-02T10:46:21;8.77;;;3.28;;
49460;SDS011;35355;49.198;-0.368;2022-09-02T10:51:30;5.65;;;2.88;;
49460;SDS011;35355;49.198;-0.368;2022-09-02T10:54:38;3.60;;;3.00;;
49460;SDS011;35355;49.198;-0.368;2022-09-02T10:57:20;4.72;;;2.65;;
49460;SDS011;35355;49.198;-0.368;2022-09-02T10:59:58;5.50;;;2.85;;
49460;SDS011;35355;49.198;-0.368;2022-09-02T11:02:31;2.67;;;2.00;;
49460;SDS011;35355;49.198;-0.368;2022-09-02T11:05:10;4.57;;;2.20;;
49460;SDS011;35355;49.198;-0.368;2022-09-02T11:10:45;3.78;;;2.08;;
49460;SDS011;35355;49.198;-0.368;2022-09-02T11:16:14;4.30;;;2.00;;
49460;SDS011;35355;49.198;-0.368;2022-09-02T11:25:43;4.80;;;2.35;;
49460;SDS011;35355;49.198;-0.368;2022-09-02T11:30:19;3.55;;;2.70;;
49460;SDS011;35355;49.198;-0.368;2022-09-02T11:35:33;3.63;;;2.03;;
49460;SDS011;35355;49.198;-0.368;2022-09-02T11:38:04;2.92;;;1.95;;
49460;SDS011;35355;49.198;-0.368;2022-09-02T11:47:02;2.15;;;1.73;;
49460;SDS011;35355;49.198;-0.368;2022-09-02T11:54:00;3.00;;;1.70;;
49460;SDS011;35355;49.198;-0.368;2022-09-02T11:56:28;4.25;;;1.42;;
49460;SDS011;35355;49.198;-0.368;2022-09-02T11:59:18;2.72;;;0.80;;
49460;SDS011;35355;49.198;-0.368;2022-09-02T12:01:52;3.10;;;1.08;;
49460;SDS011;35355;49.198;-0.368;2022-09-02T12:04:19;5.03;;;1.20;;
49460;SDS011;35355;49.198;-0.368;2022-09-02T12:09:47;2.20;;;1.42;;
49460;SDS011;35355;49.198;-0.368;2022-09-02T12:15:02;4.82;;;1.35;;
49460;SDS011;35355;49.198;-0.368;2022-09-02T12:23:08;2.88;;;1.88;;
49460;SDS011;35355;49.198;-0.368;2022-09-02T12:25:46;9.82;;;3.63;;
49460;SDS011;35355;49.198;-0.368;2022-09-02T12:33:32;12.25;;;5.43;;
49460;SDS011;35355;49.198;-0.368;2022-09-02T12:36:00;7.97;;;5.72;;
49460;SDS011;35355;49.198;-0.368;2022-09-02T12:41:04;18.35;;;8.25;;
49460;SDS011;35355;49.198;-0.368;2022-09-02T12:52:05;24.38;;;11.32;;
49460;SDS011;35355;49.198;-0.368;2022-09-02T12:57:02;18.85;;;11.23;;
49460;SDS011;35355;49.198;-0.368;2022-09-02T12:59:33;18.30;;;10.50;;
49460;SDS011;35355;49.198;-0.368;2022-09-02T13:23:58;14.50;;;8.63;;
49460;SDS011;35355;49.198;-0.368;2022-09-02T13:32:29;15.13;;;9.68;;
49460;SDS011;35355;49.198;-0.368;2022-09-02T13:35:01;15.35;;;10.18;;
49460;SDS011;35355;49.198;-0.368;2022-09-02T13:39:55;19.83;;;11.48;;
49460;SDS011;35355;49.198;-0.368;2022-09-02T13:42:22;16.60;;;11.95;;
49460;SDS011;35355;49.198;-0.368;2022-09-02T13:44:49;21.38;;;12.18;;
49460;SDS011;35355;49.198;-0.368;2022-09-02T13:47:16;14.80;;;10.43;;
49460;SDS011;35355;49.198;-0.368;2022-09-02T13:49:46;12.98;;;7.82;;
49460;SDS011;35355;49.198;-0.368;2022-09-02T14:11:21;7.43;;;6.00;;
49460;SDS011;35355;49.198;-0.368;2022-09-02T14:13:47;10.93;;;6.93;;
49460;SDS011;35355;49.198;-0.368;2022-09-02T14:16:25;9.30;;;6.63;;
49460;SDS011;35355;49.198;-0.368;2022-09-02T14:21:43;7.97;;;5.97;;
49460;SDS011;35355;49.198;-0.368;2022-09-02T14:26:42;8.13;;;5.18;;
49460;SDS011;35355;49.198;-0.368;2022-09-02T14:29:11;7.03;;;4.65;;
49460;SDS011;35355;49.198;-0.368;2022-09-02T14:31:39;5.28;;;4.05;;
49460;SDS011;35355;49.198;-0.368;2022-09-02T14:34:30;10.48;;;4.22;;
49460;SDS011;35355;49.198;-0.368;2022-09-02T14:36:59;8.57;;;4.32;;
49460;SDS011;35355;49.198;-0.368;2022-09-02T14:39:25;5.70;;;3.58;;
49460;SDS011;35355;49.198;-0.368;2022-09-02T14:41:51;8.95;;;3.80;;
49460;SDS011;35355;49.198;-0.368;2022-09-02T14:44:28;8.15;;;3.30;;
49460;SDS011;35355;49.198;-0.368;2022-09-02T14:46:58;6.30;;;3.35;;
49460;SDS011;35355;49.198;-0.368;2022-09-02T14:51:51;5.47;;;2.40;;
49460;SDS011;35355;49.198;-0.368;2022-09-02T14:54:32;3.78;;;2.45;;
49460;SDS011;35355;49.198;-0.368;2022-09-02T14:57:01;4.40;;;2.70;;
49460;SDS011;35355;49.198;-0.368;2022-09-02T14:59:27;4.38;;;1.98;;
49460;SDS011;35355;49.198;-0.368;2022-09-02T15:01:53;3.13;;;2.00;;
49460;SDS011;35355;49.198;-0.368;2022-09-02T15:04:20;3.67;;;2.08;;
49460;SDS011;35355;49.198;-0.368;2022-09-02T15:06:46;2.83;;;1.40;;
49460;SDS011;35355;49.198;-0.368;2022-09-02T15:09:12;3.00;;;1.55;;
49460;SDS011;35355;49.198;-0.368;2022-09-02T15:11:42;3.63;;;1.55;;
49460;SDS011;35355;49.198;-0.368;2022-09-02T15:14:14;2.85;;;1.90;;
49460;SDS011;35355;49.198;-0.368;2022-09-02T15:16:39;3.30;;;1.83;;
49460;SDS011;35355;49.198;-0.368;2022-09-02T15:19:05;2.92;;;1.65;;
49460;SDS011;35355;49.198;-0.368;2022-09-02T15:21:30;4.38;;;1.70;;
49460;SDS011;35355;49.198;-0.368;2022-09-02T15:23:56;3.63;;;1.50;;
49460;SDS011;35355;49.198;-0.368;2022-09-02T15:26:21;3.05;;;1.30;;
49460;SDS011;35355;49.198;-0.368;2022-09-02T15:28:47;3.03;;;1.40;;
49460;SDS011;35355;49.198;-0.368;2022-09-02T15:31:13;3.15;;;1.48;;
49460;SDS011;35355;49.198;-0.368;2022-09-02T15:33:38;4.68;;;1.65;;
49460;SDS011;35355;49.198;-0.368;2022-09-02T15:36:06;2.97;;;1.73;;
49460;SDS011;35355;49.198;-0.368;2022-09-02T15:38:35;4.95;;;2.50;;
49460;SDS011;35355;49.198;-0.368;2022-09-02T15:41:26;2.00;;;1.48;;
49460;SDS011;35355;49.198;-0.368;2022-09-02T15:43:52;2.67;;;1.88;;
49460;SDS011;35355;49.198;-0.368;2022-09-02T15:46:19;2.58;;;1.70;;
49460;SDS011;35355;49.198;-0.368;2022-09-02T15:48:49;3.78;;;2.33;;
49460;SDS011;35355;49.198;-0.368;2022-09-02T15:51:16;2.63;;;1.67;;
49460;SDS011;35355;49.198;-0.368;2022-09-02T15:53:43;3.30;;;1.90;;
49460;SDS011;35355;49.198;-0.368;2022-09-02T15:56:16;2.85;;;1.80;;
49460;SDS011;35355;49.198;-0.368;2022-09-02T16:01:08;5.03;;;3.30;;
49460;SDS011;35355;49.198;-0.368;2022-09-02T16:03:34;4.55;;;2.65;;
49460;SDS011;35355;49.198;-0.368;2022-09-02T16:06:01;4.07;;;2.70;;
49460;SDS011;35355;49.198;-0.368;2022-09-02T16:08:27;5.40;;;2.92;;
49460;SDS011;35355;49.198;-0.368;2022-09-02T16:10:52;5.00;;;3.00;;
49460;SDS011;35355;49.198;-0.368;2022-09-02T16:13:18;4.38;;;2.90;;
49460;SDS011;35355;49.198;-0.368;2022-09-02T16:15:44;4.20;;;2.95;;
49460;SDS011;35355;49.198;-0.368;2022-09-02T16:18:10;4.05;;;2.70;;
49460;SDS011;35355;49.198;-0.368;2022-09-02T16:20:35;5.63;;;2.85;;
49460;SDS011;35355;49.198;-0.368;2022-09-02T16:23:01;4.55;;;2.45;;
49460;SDS011;35355;49.198;-0.368;2022-09-02T16:25:26;5.43;;;2.90;;
49460;SDS011;35355;49.198;-0.368;2022-09-02T16:27:51;7.53;;;3.45;;
49460;SDS011;35355;49.198;-0.368;2022-09-02T16:30:17;4.82;;;2.70;;
49460;SDS011;35355;49.198;-0.368;2022-09-02T16:32:43;8.02;;;3.00;;
49460;SDS011;35355;49.198;-0.368;2022-09-02T16:35:09;4.35;;;2.55;;
49460;SDS011;35355;49.198;-0.368;2022-09-02T16:37:34;5.60;;;2.58;;
49460;SDS011;35355;49.198;-0.368;2022-09-02T16:40:00;7.32;;;2.83;;
49460;SDS011;35355;49.198;-0.368;2022-09-02T16:42:27;5.75;;;2.97;;
49460;SDS011;35355;49.198;-0.368;2022-09-02T16:44:52;6.40;;;3.28;;
49460;SDS011;35355;49.198;-0.368;2022-09-02T16:47:17;3.75;;;2.97;;
49460;SDS011;35355;49.198;-0.368;2022-09-02T16:49:43;7.78;;;2.70;;
49460;SDS011;35355;49.198;-0.368;2022-09-02T16:52:10;6.30;;;2.90;;
49460;SDS011;35355;49.198;-0.368;2022-09-02T16:54:35;4.65;;;2.70;;
49460;SDS011;35355;49.198;-0.368;2022-09-02T16:57:01;3.92;;;2.80;;
49460;SDS011;35355;49.198;-0.368;2022-09-02T16:59:27;5.95;;;2.92;;
49460;SDS011;35355;49.198;-0.368;2022-09-02T17:01:55;9.43;;;3.40;;
49460;SDS011;35355;49.198;-0.368;2022-09-02T17:04:20;3.63;;;3.15;;
49460;SDS011;35355;49.198;-0.368;2022-09-02T17:06:46;4.57;;;2.97;;
49460;SDS011;35355;49.198;-0.368;2022-09-02T17:09:11;6.25;;;3.60;;
49460;SDS011;35355;49.198;-0.368;2022-09-02T17:11:37;5.88;;;2.70;;
49460;SDS011;35355;49.198;-0.368;2022-09-02T17:14:06;6.75;;;3.58;;
49460;SDS011;35355;49.198;-0.368;2022-09-02T17:16:36;4.38;;;3.03;;
49460;SDS011;35355;49.198;-0.368;2022-09-02T17:19:04;5.78;;;3.22;;
49460;SDS011;35355;49.198;-0.368;2022-09-02T17:23:58;3.80;;;2.90;;
49460;SDS011;35355;49.198;-0.368;2022-09-02T17:26:25;7.97;;;2.88;;
49460;SDS011;35355;49.198;-0.368;2022-09-02T17:28:52;4.82;;;2.75;;
49460;SDS011;35355;49.198;-0.368;2022-09-02T17:31:25;3.30;;;2.42;;
49460;SDS011;35355;49.198;-0.368;2022-09-02T17:33:55;6.05;;;2.90;;
49460;SDS011;35355;49.198;-0.368;2022-09-02T17:36:23;3.17;;;2.67;;
49460;SDS011;35355;49.198;-0.368;2022-09-02T17:38:54;8.25;;;3.42;;
49460;SDS011;35355;49.198;-0.368;2022-09-02T17:41:21;3.58;;;2.53;;
49460;SDS011;35355;49.198;-0.368;2022-09-02T17:44:05;5.97;;;2.28;;
49460;SDS011;35355;49.198;-0.368;2022-09-02T17:46:31;3.08;;;2.28;;
49460;SDS011;35355;49.198;-0.368;2022-09-02T17:48:56;4.18;;;2.72;;